Terminal Aerodrome Forecast
Issued by NWS

Home | Current Version | Previous Version | Graphics & Text | Print | Product List | Glossary On
Versions: 1 2 3 4 5 6 7 8 9 10 11 12 13
000
FTUS43 KICT 152327
TAFSLN
TAF
KSLN 152327Z 1600/1624 34019G28KT P6SM SCT035
     FM160200 34014KT P6SM SCT250
     FM161900 33009KT P6SM SCT150=

USA.gov is the U.S. government's official web portal to all federal, state and local government web resources and services.